createdAt,value
2022-10-26T00:01:16.106Z,90.71
2022-10-26T00:03:46.934Z,90.19
2022-10-26T00:06:21.606Z,90.12
2022-10-26T00:08:49.438Z,91.69
2022-10-26T00:11:17.913Z,91.19
2022-10-26T00:13:46.617Z,90.96
2022-10-26T00:16:17.073Z,90.66
2022-10-26T00:18:44.991Z,90.56
2022-10-26T00:21:12.465Z,90.30
2022-10-26T00:23:39.794Z,91.03
2022-10-26T00:26:08.055Z,92.11
2022-10-26T00:28:35.218Z,92.31
2022-10-26T00:31:12.022Z,91.59
2022-10-26T00:33:39.152Z,91.99
2022-10-26T00:36:09.278Z,91.60
2022-10-26T00:38:37.343Z,91.69
2022-10-26T00:41:05.268Z,91.79
2022-10-26T00:43:32.041Z,92.01
2022-10-26T00:46:01.739Z,93.50
2022-10-26T00:48:35.684Z,93.82
2022-10-26T00:51:32.792Z,93.21
2022-10-26T00:54:11.312Z,92.09
2022-10-26T00:56:38.411Z,92.46
2022-10-26T00:59:11.263Z,92.32
2022-10-26T01:01:43.277Z,91.45
2022-10-26T01:04:12.221Z,92.78
2022-10-26T01:06:41.182Z,92.87
2022-10-26T01:09:09.130Z,93.23
2022-10-26T01:11:36.114Z,93.63
2022-10-26T01:14:09.437Z,93.87
2022-10-26T01:16:57.107Z,94.69
2022-10-26T01:19:23.921Z,94.75
2022-10-26T01:22:25.969Z,94.25
2022-10-26T01:25:27.524Z,95.38
2022-10-26T01:27:54.734Z,94.38
2022-10-26T01:30:45.893Z,93.64
2022-10-26T01:33:31.180Z,94.45
2022-10-26T01:36:06.852Z,94.62
2022-10-26T01:39:00.404Z,93.34
2022-10-26T01:41:35.348Z,93.25
2022-10-26T01:44:25.589Z,92.94
2022-10-26T01:46:55.737Z,92.97
2022-10-26T01:49:35.448Z,93.42
2022-10-26T01:52:02.425Z,94.01
2022-10-26T01:54:29.508Z,94.06
2022-10-26T01:57:02.625Z,94.20
2022-10-26T02:00:07.750Z,93.82
2022-10-26T02:03:12.297Z,94.15
2022-10-26T02:06:19.190Z,94.38
2022-10-26T02:09:13.772Z,92.79
2022-10-26T02:11:46.957Z,92.74
2022-10-26T02:14:34.827Z,92.57
2022-10-26T02:17:19.213Z,93.17
2022-10-26T02:20:05.493Z,93.19
2022-10-26T02:22:39.684Z,92.83
2022-10-26T02:25:15.957Z,93.34
2022-10-26T02:27:50.985Z,93.65
2022-10-26T02:30:18.721Z,93.95
2022-10-26T02:32:55.125Z,94.19
2022-10-26T02:35:30.039Z,93.34
2022-10-26T02:38:04.757Z,93.51
2022-10-26T02:40:34.351Z,93.97
2022-10-26T02:43:10.760Z,94.24
2022-10-26T02:45:47.938Z,94.55
2022-10-26T02:48:16.264Z,94.79
2022-10-26T02:51:14.215Z,95.24
2022-10-26T02:54:08.638Z,95.15
2022-10-26T02:56:54.270Z,94.30
2022-10-26T02:59:23.951Z,93.04
2022-10-26T03:01:53.146Z,92.93
2022-10-26T03:04:20.369Z,92.72
2022-10-26T03:06:54.992Z,92.86
2022-10-26T03:09:24.765Z,91.80
2022-10-26T03:11:53.177Z,91.31
2022-10-26T03:14:20.690Z,91.63
2022-10-26T03:16:47.718Z,92.29
2022-10-26T03:19:14.778Z,93.22
2022-10-26T03:21:42.303Z,92.41
2022-10-26T03:24:10.237Z,91.44
2022-10-26T03:26:37.348Z,91.80
2022-10-26T03:29:04.836Z,92.17
2022-10-26T03:31:31.787Z,92.84
2022-10-26T03:33:58.814Z,93.37
2022-10-26T03:36:25.784Z,93.45
2022-10-26T03:38:52.736Z,93.48
2022-10-26T03:41:19.688Z,93.57
2022-10-26T03:43:48.474Z,93.44
2022-10-26T03:46:15.429Z,93.88
2022-10-26T03:48:42.413Z,93.39
2022-10-26T03:51:09.346Z,92.95
2022-10-26T03:53:36.298Z,92.55
2022-10-26T03:56:03.498Z,92.93
2022-10-26T03:58:30.581Z,92.60
2022-10-26T04:00:57.655Z,92.72
2022-10-26T04:03:24.652Z,92.99
2022-10-26T04:05:51.641Z,93.19
2022-10-26T04:08:18.894Z,93.05
2022-10-26T04:10:47.399Z,93.05
2022-10-26T04:13:14.376Z,93.56
2022-10-26T04:15:41.339Z,93.69
2022-10-26T04:18:12.950Z,92.62
2022-10-26T04:20:42.154Z,93.61
2022-10-26T04:23:14.488Z,93.73
2022-10-26T04:25:42.781Z,94.09
2022-10-26T04:28:12.462Z,93.98
2022-10-26T04:30:39.989Z,93.91
2022-10-26T04:33:07.805Z,94.49
2022-10-26T04:35:35.079Z,94.70
2022-10-26T04:38:06.632Z,94.20
2022-10-26T04:40:35.555Z,94.00
2022-10-26T04:43:02.816Z,94.54
2022-10-26T04:45:30.829Z,94.96
2022-10-26T04:48:07.091Z,94.61
2022-10-26T04:50:34.421Z,94.72
2022-10-26T04:53:01.779Z,94.94
2022-10-26T04:55:28.833Z,95.03
2022-10-26T04:57:58.434Z,94.76
2022-10-26T05:00:30.101Z,94.82
2022-10-26T05:03:02.303Z,94.94
2022-10-26T05:05:31.290Z,94.51
2022-10-26T05:07:58.245Z,94.92
2022-10-26T05:10:26.809Z,94.03
2022-10-26T05:12:55.718Z,94.42
2022-10-26T05:15:23.479Z,94.76
2022-10-26T05:18:03.366Z,94.58
2022-10-26T05:20:34.347Z,95.03
2022-10-26T05:23:06.034Z,94.74
2022-10-26T05:25:37.631Z,95.02
2022-10-26T05:28:14.816Z,94.97
2022-10-26T05:30:44.509Z,95.19
2022-10-26T05:33:13.374Z,94.98
2022-10-26T05:35:40.736Z,95.24
2022-10-26T05:38:18.290Z,95.25
2022-10-26T05:40:50.305Z,94.95
2022-10-26T05:43:18.103Z,95.00
2022-10-26T05:45:45.521Z,95.43
2022-10-26T05:48:12.699Z,96.09
2022-10-26T05:50:39.799Z,95.70
2022-10-26T05:53:06.769Z,96.01
2022-10-26T05:55:34.931Z,95.66
2022-10-26T05:58:02.521Z,95.64
2022-10-26T06:00:30.683Z,95.20
2022-10-26T06:03:35.241Z,95.76
2022-10-26T06:06:05.216Z,96.38
2022-10-26T06:08:34.816Z,95.21
2022-10-26T06:11:03.051Z,95.41
2022-10-26T06:13:30.507Z,96.00
2022-10-26T06:16:07.880Z,94.91
2022-10-26T06:19:02.025Z,95.63
2022-10-26T06:21:41.177Z,96.29
2022-10-26T06:24:53.785Z,95.41
2022-10-26T06:28:05.038Z,95.23
2022-10-26T06:30:32.902Z,95.48
2022-10-26T06:33:06.635Z,95.43
2022-10-26T06:36:15.898Z,96.03
2022-10-26T06:38:44.917Z,96.05
2022-10-26T06:41:18.907Z,95.74
2022-10-26T06:43:47.626Z,95.73
2022-10-26T06:46:49.708Z,95.76
2022-10-26T06:50:09.889Z,95.94
2022-10-26T06:52:54.203Z,95.85
2022-10-26T06:55:22.043Z,94.88
2022-10-26T06:57:50.219Z,95.07
2022-10-26T07:00:23.136Z,94.83
2022-10-26T07:02:50.762Z,95.75
2022-10-26T07:05:18.507Z,94.98
2022-10-26T07:07:48.196Z,95.81
2022-10-26T07:10:16.089Z,95.04
2022-10-26T07:12:43.067Z,95.89
2022-10-26T07:15:10.607Z,95.57
2022-10-26T07:17:49.685Z,94.82
2022-10-26T07:20:20.859Z,94.74
2022-10-26T07:22:57.728Z,95.08
2022-10-26T07:25:26.383Z,95.23
2022-10-26T07:27:59.390Z,94.73
2022-10-26T07:30:28.699Z,94.19
2022-10-26T07:33:06.459Z,94.34
2022-10-26T07:35:34.626Z,94.28
2022-10-26T07:38:02.143Z,94.90
2022-10-26T07:40:30.095Z,95.03
2022-10-26T07:43:00.165Z,95.97
2022-10-26T07:45:29.501Z,96.27
2022-10-26T07:47:56.615Z,95.32
2022-10-26T07:50:24.146Z,95.06
2022-10-26T07:52:51.439Z,94.36
2022-10-26T07:55:19.233Z,94.55
2022-10-26T07:57:48.530Z,94.36
2022-10-26T08:00:19.780Z,95.24
2022-10-26T08:02:46.793Z,95.10
2022-10-26T08:05:14.301Z,94.59
2022-10-26T08:07:44.502Z,93.51
2022-10-26T08:10:13.904Z,93.14
2022-10-26T08:12:43.096Z,93.72
2022-10-26T08:15:10.985Z,93.27
2022-10-26T08:17:38.157Z,92.79
2022-10-26T08:20:05.988Z,93.01
2022-10-26T08:22:32.977Z,92.08
2022-10-26T08:24:59.904Z,92.68
2022-10-26T08:27:27.444Z,92.31
2022-10-26T08:29:54.549Z,92.16
2022-10-26T08:32:21.740Z,92.11
2022-10-26T08:34:48.688Z,91.90
2022-10-26T08:37:15.655Z,91.67
2022-10-26T08:39:42.563Z,91.31
2022-10-26T08:42:27.362Z,91.85
2022-10-26T08:45:03.187Z,91.55
2022-10-26T08:47:46.939Z,91.15
2022-10-26T08:50:28.280Z,90.25
2022-10-26T08:53:25.828Z,90.08
2022-10-26T08:56:25.559Z,90.29
2022-10-26T08:59:17.895Z,90.48
2022-10-26T09:01:45.002Z,89.95
2022-10-26T09:04:16.272Z,90.46
2022-10-26T09:07:13.228Z,90.44
2022-10-26T09:10:37.834Z,90.25
2022-10-26T09:13:37.816Z,88.80
2022-10-26T09:16:55.904Z,88.96
2022-10-26T09:19:56.892Z,88.13
2022-10-26T09:23:24.723Z,88.70
2022-10-26T09:26:01.201Z,88.55
2022-10-26T09:28:38.967Z,88.70
2022-10-26T09:31:06.279Z,88.43
2022-10-26T09:33:39.618Z,87.65
2022-10-26T09:36:28.479Z,86.86
2022-10-26T09:39:15.429Z,86.98
2022-10-26T09:42:02.611Z,86.04
2022-10-26T09:44:44.890Z,85.22
2022-10-26T09:47:35.562Z,85.05
2022-10-26T09:50:37.329Z,84.77
2022-10-26T09:53:04.818Z,83.53
2022-10-26T09:55:33.106Z,83.18
2022-10-26T09:58:06.914Z,84.93
2022-10-26T10:03:02.542Z,84.29
2022-10-26T10:05:53.202Z,82.11
2022-10-26T10:08:27.619Z,82.02
2022-10-26T10:11:15.434Z,81.07
2022-10-26T10:25:40.167Z,78.94
2022-10-26T10:28:28.372Z,79.80
2022-10-26T10:31:05.903Z,80.82
2022-10-26T10:33:41.745Z,79.16
2022-10-26T10:36:25.889Z,78.35
2022-10-26T10:38:54.321Z,77.01
2022-10-26T10:41:48.240Z,75.18
2022-10-26T10:44:29.617Z,75.40
2022-10-26T10:47:06.966Z,75.61
2022-10-26T10:49:34.602Z,76.15
2022-10-26T10:52:01.789Z,75.54
2022-10-26T10:54:39.169Z,74.49
2022-10-26T10:57:58.518Z,74.46
2022-10-26T11:00:27.654Z,74.35
2022-10-26T11:03:45.874Z,74.17
2022-10-26T11:06:29.874Z,73.54
2022-10-26T11:09:15.587Z,72.33
2022-10-26T11:12:01.796Z,71.65
2022-10-26T11:14:49.563Z,72.99
2022-10-26T11:17:29.200Z,74.94
2022-10-26T11:20:14.949Z,73.39
2022-10-26T11:23:38.287Z,74.62
2022-10-26T11:26:34.151Z,71.83
2022-10-26T11:29:43.492Z,71.32
2022-10-26T11:32:43.619Z,71.20
2022-10-26T11:35:47.423Z,70.37
2022-10-26T11:38:46.614Z,70.82
2022-10-26T11:42:00.278Z,72.52
2022-10-26T11:45:04.268Z,71.38
2022-10-26T11:47:53.039Z,73.10
2022-10-26T11:50:36.333Z,71.42
2022-10-26T11:53:24.400Z,72.20
2022-10-26T11:55:56.316Z,71.31
2022-10-26T11:58:28.295Z,71.98
2022-10-26T12:01:11.615Z,71.88
2022-10-26T12:03:49.440Z,70.07
2022-10-26T12:06:25.134Z,69.14
2022-10-26T12:09:15.969Z,69.17
2022-10-26T12:12:46.247Z,69.04
2022-10-26T12:16:03.969Z,67.05
2022-10-26T12:18:59.216Z,66.79
2022-10-26T12:21:30.731Z,65.73
2022-10-26T12:24:35.460Z,67.68
2022-10-26T12:27:06.047Z,66.36
2022-10-26T12:29:49.103Z,69.54
2022-10-26T12:32:33.693Z,67.17
2022-10-26T12:35:44.159Z,66.61
2022-10-26T12:38:32.944Z,65.26
2022-10-26T12:41:06.681Z,64.88
2022-10-26T12:43:40.917Z,65.71
2022-10-26T12:51:21.797Z,65.69
2022-10-26T12:54:07.583Z,66.22
2022-10-26T12:56:49.935Z,65.04
2022-10-26T12:59:28.685Z,64.38
2022-10-26T13:02:26.212Z,65.66
2022-10-26T13:05:45.205Z,64.92
2022-10-26T13:08:13.961Z,63.97
2022-10-26T13:11:18.584Z,63.29
2022-10-26T13:13:57.512Z,63.54
2022-10-26T13:16:28.821Z,63.29
2022-10-26T13:18:57.926Z,63.02
2022-10-26T13:21:26.899Z,63.76
2022-10-26T13:23:53.732Z,65.31
2022-10-26T13:26:25.630Z,65.10
2022-10-26T13:28:57.373Z,65.82
2022-10-26T13:31:34.262Z,64.75
2022-10-26T13:34:19.256Z,65.86
2022-10-26T13:37:26.425Z,63.43
2022-10-26T13:39:56.180Z,65.37
2022-10-26T13:42:51.224Z,64.10
2022-10-26T13:45:47.196Z,64.11
2022-10-26T13:48:30.798Z,65.83
2022-10-26T13:51:04.000Z,64.89
2022-10-26T13:54:02.626Z,64.68
2022-10-26T13:56:41.180Z,65.47
2022-10-26T13:59:14.711Z,64.92
2022-10-26T14:01:41.807Z,64.14
2022-10-26T14:04:26.585Z,64.82
2022-10-26T14:06:54.614Z,65.35
2022-10-26T14:09:23.189Z,64.91
2022-10-26T14:12:02.649Z,69.08
2022-10-26T14:14:38.682Z,68.81
2022-10-26T14:17:05.949Z,70.25
2022-10-26T14:19:40.783Z,67.54
2022-10-26T14:22:08.122Z,68.01
2022-10-26T14:24:47.344Z,69.40
2022-10-26T14:27:17.994Z,67.96
2022-10-26T14:29:49.859Z,68.27
2022-10-26T14:32:33.496Z,67.02
2022-10-26T14:35:00.535Z,66.12
2022-10-26T14:37:59.757Z,67.57
2022-10-26T14:40:32.346Z,67.81
2022-10-26T14:43:02.566Z,67.68
2022-10-26T14:45:54.357Z,68.30
2022-10-26T14:48:33.269Z,69.71
2022-10-26T14:51:21.356Z,71.10
2022-10-26T14:53:53.489Z,72.54
2022-10-26T14:56:35.542Z,72.63
2022-10-26T14:59:33.360Z,72.80
2022-10-26T15:02:22.331Z,73.11
2022-10-26T15:05:24.353Z,72.71
2022-10-26T15:07:54.634Z,72.54
2022-10-26T15:10:37.069Z,75.59
2022-10-26T15:13:32.488Z,77.40
2022-10-26T15:16:18.855Z,78.04
2022-10-26T15:18:51.482Z,79.15
2022-10-26T15:21:25.781Z,79.67
2022-10-26T15:23:54.663Z,80.85
2022-10-26T15:26:24.439Z,80.95
2022-10-26T15:28:53.439Z,80.93
2022-10-26T15:31:20.166Z,81.28
2022-10-26T15:33:53.259Z,80.59
2022-10-26T15:36:24.577Z,81.20
2022-10-26T15:38:51.978Z,81.10
2022-10-26T15:41:29.348Z,81.33
2022-10-26T15:44:01.383Z,81.46
2022-10-26T15:46:39.250Z,81.94
2022-10-26T15:49:14.699Z,82.27
2022-10-26T15:51:45.288Z,81.87
2022-10-26T15:54:12.481Z,81.53
2022-10-26T15:56:40.224Z,81.52
2022-10-26T15:59:18.622Z,81.62
2022-10-26T16:01:45.920Z,81.68
2022-10-26T16:04:13.133Z,81.24
2022-10-26T16:06:41.985Z,81.49
2022-10-26T16:09:17.944Z,83.06
2022-10-26T16:11:45.364Z,83.57
2022-10-26T16:14:13.083Z,83.68
2022-10-26T16:16:41.245Z,84.98
2022-10-26T16:19:29.813Z,84.57
2022-10-26T16:21:58.315Z,84.74
2022-10-26T16:24:30.250Z,86.00
2022-10-26T16:26:57.867Z,85.02
2022-10-26T16:29:24.837Z,84.65
2022-10-26T16:31:51.916Z,85.42
2022-10-26T16:34:18.948Z,85.65
2022-10-26T16:36:45.860Z,85.13
2022-10-26T16:39:13.389Z,85.15
2022-10-26T16:41:40.418Z,84.77
2022-10-26T16:44:07.386Z,85.01
2022-10-26T16:46:34.446Z,84.63
2022-10-26T16:49:01.486Z,84.22
2022-10-26T16:51:29.028Z,83.44
2022-10-26T16:53:57.224Z,84.30
2022-10-26T16:56:28.901Z,84.01
2022-10-26T16:58:57.083Z,83.90
2022-10-26T17:01:24.538Z,84.61
2022-10-26T17:03:53.325Z,84.50
2022-10-26T17:06:20.691Z,85.36
2022-10-26T17:08:48.032Z,84.71
2022-10-26T17:11:19.754Z,85.09
2022-10-26T17:13:47.488Z,84.42
2022-10-26T17:16:19.993Z,84.36
2022-10-26T17:18:48.346Z,84.20
2022-10-26T17:21:19.138Z,84.17
2022-10-26T17:23:46.765Z,85.70
2022-10-26T17:26:15.033Z,84.67
2022-10-26T17:28:42.060Z,85.42
2022-10-26T17:31:15.126Z,84.39
2022-10-26T17:33:44.460Z,85.18
2022-10-26T17:36:13.969Z,85.17
2022-10-26T17:38:42.733Z,85.26
2022-10-26T17:41:13.687Z,84.52
2022-10-26T17:43:43.159Z,84.53
2022-10-26T17:46:16.830Z,84.86
2022-10-26T17:48:44.094Z,83.44
2022-10-26T17:51:18.946Z,85.47
2022-10-26T17:53:51.173Z,85.09
2022-10-26T17:56:26.473Z,85.77
2022-10-26T17:59:03.988Z,85.22
2022-10-26T18:01:31.867Z,85.79
2022-10-26T18:03:59.329Z,86.30
2022-10-26T18:06:26.451Z,86.84
2022-10-26T18:08:53.507Z,85.80
2022-10-26T18:11:26.758Z,86.81
2022-10-26T18:13:55.964Z,86.32
2022-10-26T18:16:28.124Z,85.71
2022-10-26T18:19:04.692Z,85.50
2022-10-26T18:21:38.735Z,84.87
2022-10-26T18:24:08.150Z,85.96
2022-10-26T18:26:36.060Z,84.77
2022-10-26T18:29:04.639Z,86.18
2022-10-26T18:31:34.726Z,85.91
2022-10-26T18:34:05.538Z,86.08
2022-10-26T18:36:32.977Z,85.49
2022-10-26T18:39:00.039Z,85.33
2022-10-26T18:41:28.116Z,85.08
2022-10-26T18:43:58.934Z,84.25
2022-10-26T18:46:33.742Z,84.71
2022-10-26T18:49:01.144Z,84.19
2022-10-26T18:51:34.404Z,84.05
2022-10-26T18:54:02.141Z,83.79
2022-10-26T18:56:29.206Z,84.49
2022-10-26T18:58:59.406Z,85.54
2022-10-26T19:01:34.162Z,85.13
2022-10-26T19:04:05.675Z,83.54
2022-10-26T19:06:40.210Z,84.50
2022-10-26T19:09:09.984Z,84.94
2022-10-26T19:11:38.664Z,85.73
2022-10-26T19:14:07.386Z,85.18
2022-10-26T19:16:50.856Z,85.42
2022-10-26T19:19:20.149Z,85.57
2022-10-26T19:21:49.609Z,84.95
2022-10-26T19:24:22.648Z,85.23
2022-10-26T19:26:51.631Z,84.88
2022-10-26T19:29:20.013Z,84.88
2022-10-26T19:31:51.680Z,84.92
2022-10-26T19:34:19.139Z,86.07
2022-10-26T19:36:47.018Z,85.98
2022-10-26T19:39:18.305Z,85.70
2022-10-26T19:41:46.423Z,85.92
2022-10-26T19:44:14.995Z,85.83
2022-10-26T19:46:43.413Z,86.92
2022-10-26T19:49:12.467Z,86.27
2022-10-26T19:51:39.477Z,87.28
2022-10-26T19:54:07.142Z,87.24
2022-10-26T19:56:37.149Z,87.98
2022-10-26T19:59:05.056Z,87.43
2022-10-26T20:01:32.701Z,87.94
2022-10-26T20:04:02.250Z,87.88
2022-10-26T20:06:30.614Z,87.60
2022-10-26T20:08:57.608Z,88.34
2022-10-26T20:11:24.533Z,87.92
2022-10-26T20:13:51.527Z,87.58
2022-10-26T20:16:18.562Z,87.24
2022-10-26T20:18:47.784Z,86.83
2022-10-26T20:21:17.223Z,87.95
2022-10-26T20:23:45.247Z,87.96
2022-10-26T20:26:19.288Z,86.48
2022-10-26T20:28:51.175Z,88.70
2022-10-26T20:31:18.444Z,89.08
2022-10-26T20:33:45.483Z,88.07
2022-10-26T20:36:12.393Z,88.40
2022-10-26T20:38:40.319Z,88.45
2022-10-26T20:41:14.530Z,89.47
2022-10-26T20:43:42.556Z,90.56
2022-10-26T20:46:28.162Z,90.41
2022-10-26T20:48:55.623Z,89.40
2022-10-26T20:52:19.467Z,89.10
2022-10-26T20:55:37.341Z,88.91
2022-10-26T20:58:20.374Z,88.28
2022-10-26T21:00:59.698Z,88.74
2022-10-26T21:03:26.885Z,88.18
2022-10-26T21:05:55.479Z,88.50
2022-10-26T21:08:22.568Z,88.87
2022-10-26T21:10:53.236Z,88.88
2022-10-26T21:13:20.204Z,89.77
2022-10-26T21:15:47.221Z,89.70
2022-10-26T21:18:14.173Z,89.89
2022-10-26T21:20:41.088Z,90.08
2022-10-26T21:23:08.036Z,89.50
2022-10-26T21:25:37.030Z,89.34
2022-10-26T21:28:06.809Z,87.71
2022-10-26T21:30:34.038Z,87.56
2022-10-26T21:33:01.111Z,87.89
2022-10-26T21:35:28.230Z,87.93
2022-10-26T21:37:55.988Z,89.33
2022-10-26T21:40:23.314Z,89.36
2022-10-26T21:42:51.813Z,89.66
2022-10-26T21:45:19.542Z,89.67
2022-10-26T21:47:52.677Z,90.57
2022-10-26T21:50:19.908Z,89.29
2022-10-26T21:52:46.833Z,90.08
2022-10-26T21:55:13.905Z,89.22
2022-10-26T21:57:40.827Z,89.59
2022-10-26T22:00:09.613Z,89.86
2022-10-26T22:02:36.538Z,89.29
2022-10-26T22:05:03.660Z,90.16
2022-10-26T22:07:30.584Z,89.88
2022-10-26T22:10:10.242Z,90.10
2022-10-26T22:12:37.781Z,89.56
2022-10-26T22:15:05.699Z,90.18
2022-10-26T22:17:36.058Z,89.30
2022-10-26T22:20:03.178Z,90.38
2022-10-26T22:22:30.132Z,89.99
2022-10-26T22:24:57.108Z,90.05
2022-10-26T22:27:24.081Z,89.08
2022-10-26T22:29:51.045Z,90.41
2022-10-26T22:32:17.964Z,90.41
2022-10-26T22:34:44.904Z,89.68
2022-10-26T22:37:11.898Z,90.66
2022-10-26T22:39:38.908Z,90.23
2022-10-26T22:42:05.946Z,90.29
2022-10-26T22:44:32.850Z,89.50
2022-10-26T22:46:59.866Z,89.29
2022-10-26T22:49:26.792Z,90.32
2022-10-26T22:51:53.690Z,90.41
2022-10-26T22:54:20.615Z,90.86
2022-10-26T22:56:47.557Z,91.22
2022-10-26T22:59:14.459Z,91.03
2022-10-26T23:01:41.842Z,89.90
2022-10-26T23:04:14.435Z,90.04
2022-10-26T23:06:41.699Z,89.16
2022-10-26T23:09:08.709Z,89.11
2022-10-26T23:11:35.668Z,89.19
2022-10-26T23:14:03.801Z,89.51
2022-10-26T23:16:31.606Z,90.36
2022-10-26T23:18:59.518Z,89.53
2022-10-26T23:21:28.209Z,88.90
2022-10-26T23:23:56.326Z,89.22
2022-10-26T23:26:23.496Z,88.95
2022-10-26T23:28:50.962Z,88.95
2022-10-26T23:31:28.145Z,88.87
2022-10-26T23:33:57.438Z,88.54
2022-10-26T23:36:25.216Z,89.10
2022-10-26T23:38:52.270Z,87.98
2022-10-26T23:41:19.178Z,88.17
2022-10-26T23:43:46.183Z,88.22
2022-10-26T23:46:13.281Z,88.63
2022-10-26T23:48:40.344Z,89.50
2022-10-26T23:51:07.284Z,87.74
2022-10-26T23:53:34.821Z,86.87
2022-10-26T23:56:02.399Z,88.29
2022-10-26T23:58:29.361Z,88.46
